createdAt,value
2023-04-17T00:01:31.728Z,23.00
2023-04-17T00:03:59.307Z,23.36
2023-04-17T00:06:27.488Z,23.25
2023-04-17T00:08:55.074Z,23.34
2023-04-17T00:11:22.617Z,23.51
2023-04-17T00:13:50.237Z,23.56
2023-04-17T00:16:20.918Z,23.65
2023-04-17T00:18:48.617Z,23.50
2023-04-17T00:21:16.199Z,23.42
2023-04-17T00:23:43.719Z,23.78
2023-04-17T00:26:11.561Z,23.79
2023-04-17T00:28:42.108Z,23.55
2023-04-17T00:31:09.581Z,23.80
2023-04-17T00:33:37.262Z,23.99
2023-04-17T00:36:05.476Z,23.53
2023-04-17T00:38:33.030Z,23.77
2023-04-17T00:41:00.824Z,23.82
2023-04-17T00:43:29.067Z,24.09
2023-04-17T00:45:57.084Z,24.14
2023-04-17T00:48:25.181Z,24.41
2023-04-17T00:50:53.926Z,23.98
2023-04-17T00:53:21.480Z,24.38
2023-04-17T00:55:51.348Z,23.90
2023-04-17T00:58:19.335Z,24.37
2023-04-17T01:00:47.072Z,24.26
2023-04-17T01:03:14.828Z,24.38
2023-04-17T01:05:44.605Z,24.36
2023-04-17T01:08:12.074Z,24.05
2023-04-17T01:10:39.660Z,24.12
2023-04-17T01:13:08.041Z,24.42
2023-04-17T01:15:37.881Z,24.42
2023-04-17T01:18:06.661Z,24.63
2023-04-17T01:20:34.903Z,24.39
2023-04-17T01:23:02.517Z,24.50
2023-04-17T01:25:30.212Z,24.19
2023-04-17T01:27:57.971Z,24.43
2023-04-17T01:30:26.896Z,24.71
2023-04-17T01:33:03.735Z,24.49
2023-04-17T01:35:31.341Z,24.57
2023-04-17T01:37:59.117Z,24.57
2023-04-17T01:40:26.915Z,24.53
2023-04-17T01:42:54.450Z,24.44
2023-04-17T01:45:22.103Z,24.46
2023-04-17T01:47:51.536Z,24.65
2023-04-17T01:50:19.584Z,24.63
2023-04-17T01:52:49.627Z,24.71
2023-04-17T01:55:17.587Z,24.61
2023-04-17T01:57:45.113Z,25.05
2023-04-17T02:00:13.101Z,24.89
2023-04-17T02:02:43.882Z,24.82
2023-04-17T02:05:11.603Z,24.89
2023-04-17T02:07:39.048Z,25.10
2023-04-17T02:10:07.148Z,24.87
2023-04-17T02:12:37.829Z,25.01
2023-04-17T02:15:06.266Z,25.00
2023-04-17T02:17:35.168Z,25.09
2023-04-17T02:20:06.958Z,24.76
2023-04-17T02:22:34.738Z,24.57
2023-04-17T02:25:02.384Z,24.78
2023-04-17T02:27:35.225Z,24.82
2023-04-17T02:30:04.443Z,24.53
2023-04-17T02:32:32.270Z,24.69
2023-04-17T02:34:59.761Z,24.74
2023-04-17T02:37:27.372Z,24.69
2023-04-17T02:39:56.068Z,24.60
2023-04-17T02:42:23.613Z,24.88
2023-04-17T02:44:51.363Z,24.65
2023-04-17T02:47:21.140Z,24.61
2023-04-17T02:49:48.776Z,25.01
2023-04-17T02:52:16.264Z,24.52
2023-04-17T02:54:43.852Z,24.64
2023-04-17T02:57:11.984Z,24.83
2023-04-17T02:59:39.857Z,24.70
2023-04-17T03:02:08.678Z,24.85
2023-04-17T03:04:41.430Z,24.55
2023-04-17T03:07:10.516Z,24.41
2023-04-17T03:09:38.856Z,24.74
2023-04-17T03:12:06.496Z,24.85
2023-04-17T03:14:33.990Z,24.81
2023-04-17T03:17:01.625Z,25.02
2023-04-17T03:19:29.327Z,25.06
2023-04-17T03:21:57.272Z,25.13
2023-04-17T03:24:24.900Z,25.04
2023-04-17T03:26:52.546Z,25.05
2023-04-17T03:29:22.039Z,25.23
2023-04-17T03:31:49.650Z,26.00
2023-04-17T03:34:21.751Z,26.48
2023-04-17T03:36:50.908Z,26.21
2023-04-17T03:39:18.533Z,25.73
2023-04-17T03:41:46.179Z,26.29
2023-04-17T03:44:13.940Z,25.85
2023-04-17T03:46:41.693Z,25.83
2023-04-17T03:49:09.623Z,26.17
2023-04-17T03:51:38.200Z,26.05
2023-04-17T03:54:12.464Z,25.60
2023-04-17T03:56:42.465Z,25.28
2023-04-17T03:59:13.415Z,24.96
2023-04-17T04:01:46.528Z,24.80
2023-04-17T04:04:19.041Z,24.74
2023-04-17T04:06:47.412Z,24.81
2023-04-17T04:09:17.004Z,24.57
2023-04-17T04:11:44.639Z,24.37
2023-04-17T04:14:12.185Z,24.17
2023-04-17T04:16:40.514Z,24.02
2023-04-17T04:19:13.869Z,24.08
2023-04-17T04:21:43.699Z,23.89
2023-04-17T04:24:14.264Z,23.78
2023-04-17T04:26:43.429Z,23.51
2023-04-17T04:29:12.180Z,23.50
2023-04-17T04:32:03.947Z,23.44
2023-04-17T04:34:37.960Z,23.43
2023-04-17T04:37:06.716Z,23.34
2023-04-17T04:39:43.185Z,23.37
2023-04-17T04:42:22.476Z,23.34
2023-04-17T04:45:07.113Z,23.37
2023-04-17T04:47:36.552Z,23.48
2023-04-17T04:50:04.424Z,23.47
2023-04-17T04:52:35.856Z,23.46
2023-04-17T04:55:09.926Z,23.40
2023-04-17T04:57:45.086Z,23.42
2023-04-17T05:00:14.537Z,23.73
2023-04-17T05:02:48.886Z,23.27
2023-04-17T05:05:18.988Z,23.39
2023-04-17T05:07:46.627Z,23.29
2023-04-17T05:10:16.340Z,23.23
2023-04-17T05:12:49.868Z,23.17
2023-04-17T05:15:17.910Z,23.25
2023-04-17T05:17:45.497Z,23.04
2023-04-17T05:20:15.134Z,23.10
2023-04-17T05:22:50.953Z,23.17
2023-04-17T05:25:26.160Z,23.87
2023-04-17T05:27:56.054Z,23.46
2023-04-17T05:30:23.813Z,23.54
2023-04-17T05:33:01.180Z,23.19
2023-04-17T05:35:56.236Z,22.98
2023-04-17T05:38:24.682Z,22.80
2023-04-17T05:40:53.514Z,22.53
2023-04-17T05:43:21.608Z,22.37
2023-04-17T05:45:49.495Z,22.56
2023-04-17T05:48:17.179Z,22.41
2023-04-17T05:50:45.770Z,22.35
2023-04-17T05:53:13.668Z,22.10
2023-04-17T05:55:50.112Z,21.37
2023-04-17T05:58:23.547Z,21.07
2023-04-17T06:00:54.899Z,20.75
2023-04-17T06:03:24.105Z,20.59
2023-04-17T06:05:59.020Z,20.79
2023-04-17T06:08:28.184Z,20.46
2023-04-17T06:10:56.465Z,20.51
2023-04-17T06:13:26.768Z,20.37
2023-04-17T06:15:55.114Z,20.51
2023-04-17T06:18:22.654Z,20.41
2023-04-17T06:20:50.703Z,20.33
2023-04-17T06:23:18.345Z,20.46
2023-04-17T06:25:46.452Z,20.50
2023-04-17T06:28:14.000Z,20.53
2023-04-17T06:30:41.714Z,20.70
2023-04-17T06:33:09.946Z,20.66
2023-04-17T06:35:37.945Z,20.75
2023-04-17T06:38:28.577Z,20.71
2023-04-17T06:40:57.241Z,21.01
2023-04-17T06:43:24.874Z,20.86
2023-04-17T06:45:54.330Z,20.80
2023-04-17T06:48:22.196Z,20.86
2023-04-17T06:50:49.850Z,20.57
2023-04-17T06:53:18.665Z,20.79
2023-04-17T06:55:46.174Z,20.29
2023-04-17T06:58:14.153Z,20.29
2023-04-17T07:00:41.684Z,20.28
2023-04-17T07:03:09.504Z,20.03
2023-04-17T07:05:37.469Z,20.17
2023-04-17T07:08:05.489Z,20.16
2023-04-17T07:10:33.084Z,19.84
2023-04-17T07:13:00.661Z,19.62
2023-04-17T07:15:31.615Z,19.65
2023-04-17T07:17:59.329Z,19.93
2023-04-17T07:20:26.944Z,19.43
2023-04-17T07:22:56.107Z,19.48
2023-04-17T07:25:23.905Z,19.17
2023-04-17T07:27:53.757Z,19.00
2023-04-17T07:30:21.289Z,18.88
2023-04-17T07:32:48.824Z,18.80
2023-04-17T07:35:16.747Z,18.47
2023-04-17T07:41:27.525Z,18.23
2023-04-17T07:44:22.783Z,18.05
2023-04-17T07:46:59.003Z,17.86
2023-04-17T07:50:00.526Z,17.62
2023-04-17T07:52:28.342Z,17.08
2023-04-17T07:55:11.201Z,15.53
2023-04-17T07:58:42.549Z,14.81
2023-04-17T08:01:10.178Z,15.74
2023-04-17T08:03:40.872Z,15.81
2023-04-17T08:06:08.817Z,15.43
2023-04-17T08:08:36.534Z,14.96
2023-04-17T08:15:53.954Z,12.75
2023-04-17T08:18:59.010Z,12.61
2023-04-17T08:21:27.070Z,11.99
2023-04-17T08:23:55.407Z,12.02
2023-04-17T08:26:23.182Z,12.74
2023-04-17T08:28:53.842Z,12.72
2023-04-17T08:31:46.509Z,12.40
2023-04-17T08:35:00.338Z,12.26
2023-04-17T08:37:58.535Z,11.52
2023-04-17T08:49:34.214Z,10.40
2023-04-17T08:53:06.515Z,9.73
2023-04-17T08:55:55.525Z,10.81
2023-04-17T08:58:28.459Z,11.57
2023-04-17T09:01:08.571Z,12.22
2023-04-17T09:03:58.361Z,12.41
2023-04-17T09:06:59.316Z,12.86
2023-04-17T09:10:10.324Z,13.32
2023-04-17T09:13:26.175Z,13.06
2023-04-17T09:16:11.252Z,12.75
2023-04-17T09:18:40.450Z,11.74
2023-04-17T09:21:08.576Z,11.78
2023-04-17T09:23:51.187Z,11.92
2023-04-17T09:26:21.225Z,12.06
2023-04-17T09:29:09.252Z,12.60
2023-04-17T09:31:40.314Z,13.00
2023-04-17T09:34:12.656Z,13.60
2023-04-17T09:36:42.859Z,13.83
2023-04-17T09:39:20.855Z,14.04
2023-04-17T09:42:13.149Z,14.28
2023-04-17T09:48:27.746Z,14.15
2023-04-17T09:55:29.412Z,14.23
2023-04-17T10:01:23.067Z,14.53
2023-04-17T10:04:34.959Z,14.71
2023-04-17T10:15:16.736Z,15.45
2023-04-17T10:18:18.491Z,15.74
2023-04-17T10:21:38.548Z,16.10
2023-04-17T10:24:24.941Z,16.25
2023-04-17T10:26:53.770Z,16.22
2023-04-17T10:29:56.910Z,16.52
2023-04-17T10:32:26.602Z,16.47
2023-04-17T10:35:17.373Z,16.95
2023-04-17T10:37:50.772Z,16.72
2023-04-17T10:40:21.564Z,16.98
2023-04-17T10:43:17.880Z,17.38
2023-04-17T10:46:18.088Z,17.64
2023-04-17T10:48:52.989Z,17.61
2023-04-17T10:51:23.423Z,17.37
2023-04-17T10:53:52.259Z,17.22
2023-04-17T10:56:35.907Z,17.36
2023-04-17T10:59:08.898Z,16.90
2023-04-17T11:01:48.580Z,17.25
2023-04-17T11:04:25.019Z,17.32
2023-04-17T11:06:54.228Z,17.14
2023-04-17T11:09:25.019Z,17.28
2023-04-17T11:11:57.018Z,17.05
2023-04-17T11:14:24.661Z,16.82
2023-04-17T11:16:52.483Z,16.92
2023-04-17T11:19:24.919Z,16.92
2023-04-17T11:21:57.354Z,16.24
2023-04-17T11:24:29.944Z,16.13
2023-04-17T11:27:00.297Z,15.82
2023-04-17T11:29:28.359Z,15.65
2023-04-17T11:31:57.447Z,15.95
2023-04-17T11:34:28.420Z,15.86
2023-04-17T11:36:58.280Z,15.97
2023-04-17T11:39:29.423Z,15.69
2023-04-17T11:41:58.061Z,15.69
2023-04-17T11:44:26.704Z,15.57
2023-04-17T11:46:56.604Z,15.68
2023-04-17T11:49:38.442Z,15.98
2023-04-17T11:52:06.680Z,15.43
2023-04-17T11:54:38.952Z,15.54
2023-04-17T11:57:12.777Z,16.05
2023-04-17T11:59:42.326Z,16.62
2023-04-17T12:02:12.655Z,16.67
2023-04-17T12:04:40.862Z,16.11
2023-04-17T12:07:20.920Z,16.27
2023-04-17T12:09:56.493Z,16.44
2023-04-17T12:12:24.388Z,16.08
2023-04-17T12:14:52.081Z,15.71
2023-04-17T12:17:19.613Z,15.32
2023-04-17T12:19:47.210Z,14.45
2023-04-17T12:22:14.772Z,14.05
2023-04-17T12:24:42.323Z,14.16
2023-04-17T12:27:09.912Z,13.91
2023-04-17T12:32:10.984Z,14.18
2023-04-17T12:34:38.917Z,14.85
2023-04-17T12:37:06.480Z,15.52
2023-04-17T12:39:34.102Z,16.06
2023-04-17T12:42:01.597Z,16.36
2023-04-17T12:44:29.485Z,16.68
2023-04-17T12:46:57.183Z,16.56
2023-04-17T12:49:24.785Z,16.48
2023-04-17T12:51:52.657Z,16.64
2023-04-17T12:54:20.188Z,16.60
2023-04-17T12:56:47.882Z,16.65
2023-04-17T12:59:16.140Z,16.83
2023-04-17T13:01:43.812Z,17.12
2023-04-17T13:04:11.803Z,17.17
2023-04-17T13:06:39.626Z,17.48
2023-04-17T13:09:07.486Z,17.89
2023-04-17T13:11:35.065Z,18.19
2023-04-17T13:14:02.570Z,18.33
2023-04-17T13:16:30.299Z,18.46
2023-04-17T13:18:57.999Z,18.44
2023-04-17T13:21:25.546Z,18.12
2023-04-17T13:23:53.106Z,18.32
2023-04-17T13:26:20.756Z,18.27
2023-04-17T13:28:48.945Z,18.43
2023-04-17T13:31:16.469Z,18.67
2023-04-17T13:33:44.772Z,18.64
2023-04-17T13:36:12.383Z,18.88
2023-04-17T13:38:39.957Z,19.15
2023-04-17T13:41:07.756Z,19.26
2023-04-17T13:43:40.488Z,19.50
2023-04-17T13:46:13.871Z,19.41
2023-04-17T13:48:43.942Z,19.97
2023-04-17T13:51:13.439Z,20.00
2023-04-17T13:53:42.842Z,20.42
2023-04-17T13:56:25.975Z,20.66
2023-04-17T13:58:58.080Z,20.76
2023-04-17T14:01:29.518Z,20.76
2023-04-17T14:04:01.891Z,20.76
2023-04-17T14:06:32.824Z,20.99
2023-04-17T14:09:01.208Z,21.11
2023-04-17T14:11:36.990Z,21.42
2023-04-17T14:14:08.538Z,21.84
2023-04-17T14:16:36.399Z,21.66
2023-04-17T14:19:13.794Z,21.51
2023-04-17T14:21:42.941Z,21.27
2023-04-17T14:24:10.612Z,21.47
2023-04-17T14:26:38.942Z,21.45
2023-04-17T14:29:06.973Z,21.46
2023-04-17T14:31:34.690Z,21.58
2023-04-17T14:34:02.528Z,21.35
2023-04-17T14:36:31.205Z,21.58
2023-04-17T14:38:59.104Z,21.57
2023-04-17T14:41:30.062Z,21.52
2023-04-17T14:43:57.818Z,22.10
2023-04-17T14:46:25.716Z,22.32
2023-04-17T14:48:56.446Z,22.62
2023-04-17T14:51:24.495Z,22.86
2023-04-17T14:53:53.240Z,22.79
2023-04-17T14:56:24.144Z,23.09
2023-04-17T14:58:51.788Z,23.18
2023-04-17T15:01:19.371Z,23.25
2023-04-17T15:03:48.874Z,23.09
2023-04-17T15:06:19.022Z,22.92
2023-04-17T15:08:46.705Z,22.53
2023-04-17T15:11:14.288Z,22.38
2023-04-17T15:13:42.005Z,22.40
2023-04-17T15:16:09.980Z,22.68
2023-04-17T15:18:39.460Z,22.73
2023-04-17T15:21:07.676Z,22.78
2023-04-17T15:23:36.245Z,22.54
2023-04-17T15:26:04.152Z,22.74
2023-04-17T15:28:33.179Z,22.67
2023-04-17T15:31:02.455Z,22.60
2023-04-17T15:33:30.150Z,22.37
2023-04-17T15:35:59.741Z,22.30
2023-04-17T15:38:27.912Z,22.33
2023-04-17T15:40:55.971Z,22.77
2023-04-17T15:43:23.631Z,22.66
2023-04-17T15:45:52.190Z,22.80
2023-04-17T15:48:19.960Z,23.17
2023-04-17T15:50:47.613Z,23.21
2023-04-17T15:53:15.213Z,22.90
2023-04-17T15:55:42.800Z,22.76
2023-04-17T15:58:10.481Z,23.31
2023-04-17T16:00:38.829Z,22.60
2023-04-17T16:03:09.334Z,22.78
2023-04-17T16:05:37.239Z,23.09
2023-04-17T16:08:06.992Z,23.09
2023-04-17T16:10:35.299Z,22.96
2023-04-17T16:13:02.840Z,23.14
2023-04-17T16:15:30.603Z,23.32
2023-04-17T16:17:58.303Z,23.83
2023-04-17T16:20:26.924Z,23.81
2023-04-17T16:22:54.515Z,23.93
2023-04-17T16:25:22.158Z,24.14
2023-04-17T16:27:49.762Z,24.35
2023-04-17T16:30:17.823Z,25.21
2023-04-17T16:32:45.692Z,24.79
2023-04-17T16:35:13.320Z,24.99
2023-04-17T16:37:40.850Z,25.25
2023-04-17T16:40:09.071Z,25.05
2023-04-17T16:42:36.583Z,24.97
2023-04-17T16:45:04.919Z,25.17
2023-04-17T16:47:33.252Z,25.19
2023-04-17T16:50:00.969Z,25.09
2023-04-17T16:52:28.478Z,25.49
2023-04-17T16:54:56.070Z,25.50
2023-04-17T16:57:23.809Z,25.48
2023-04-17T16:59:51.291Z,25.76
2023-04-17T17:02:18.833Z,25.69
2023-04-17T17:04:46.626Z,25.83
2023-04-17T17:07:14.320Z,26.05
2023-04-17T17:09:42.173Z,26.03
2023-04-17T17:12:11.166Z,26.41
2023-04-17T17:14:39.133Z,26.35
2023-04-17T17:17:06.757Z,26.46
2023-04-17T17:19:35.216Z,26.61
2023-04-17T17:22:03.193Z,26.46
2023-04-17T17:24:31.880Z,26.86
2023-04-17T17:27:02.892Z,27.24
2023-04-17T17:29:30.958Z,27.08
2023-04-17T17:31:58.736Z,27.07
2023-04-17T17:34:27.930Z,27.30
2023-04-17T17:36:55.935Z,27.16
2023-04-17T17:39:23.964Z,27.75
2023-04-17T17:41:51.857Z,27.36
2023-04-17T17:44:19.893Z,27.19
2023-04-17T17:46:47.775Z,27.31
2023-04-17T17:49:15.522Z,27.29
2023-04-17T17:51:44.649Z,27.51
2023-04-17T17:54:12.965Z,27.63
2023-04-17T17:56:40.989Z,27.70
2023-04-17T17:59:08.924Z,27.92
2023-04-17T18:01:36.754Z,28.06
2023-04-17T18:04:07.072Z,28.14
2023-04-17T18:06:35.503Z,27.99
2023-04-17T18:09:04.086Z,28.45
2023-04-17T18:11:31.858Z,28.36
2023-04-17T18:14:01.006Z,28.68
2023-04-17T18:16:32.973Z,28.54
2023-04-17T18:19:03.641Z,28.68
2023-04-17T18:21:32.125Z,28.82
2023-04-17T18:24:00.288Z,28.73
2023-04-17T18:26:27.979Z,28.90
2023-04-17T18:28:55.872Z,29.04
2023-04-17T18:31:25.329Z,29.01
2023-04-17T18:33:53.085Z,29.05
2023-04-17T18:36:20.684Z,29.22
2023-04-17T18:38:48.373Z,29.31
2023-04-17T18:41:16.129Z,29.50
2023-04-17T18:43:43.921Z,29.56
2023-04-17T18:46:12.058Z,29.64
2023-04-17T18:48:41.075Z,29.84
2023-04-17T18:51:10.841Z,30.81
2023-04-17T18:53:38.810Z,30.10
2023-04-17T18:56:08.796Z,30.49
2023-04-17T18:58:40.444Z,30.26
2023-04-17T19:01:11.516Z,30.21
2023-04-17T19:03:39.740Z,30.53
2023-04-17T19:06:09.849Z,30.49
2023-04-17T19:08:39.614Z,30.50
2023-04-17T19:11:07.341Z,30.64
2023-04-17T19:13:37.679Z,30.26
2023-04-17T19:16:05.537Z,30.61
2023-04-17T19:18:33.168Z,30.99
2023-04-17T19:21:02.116Z,30.99
2023-04-17T19:23:29.816Z,30.92
2023-04-17T19:25:59.623Z,30.71
2023-04-17T19:28:28.458Z,30.88
2023-04-17T19:30:57.988Z,31.04
2023-04-17T19:33:25.827Z,31.10
2023-04-17T19:35:53.377Z,31.35
2023-04-17T19:38:21.627Z,31.19
2023-04-17T19:41:15.355Z,31.67
2023-04-17T19:43:44.325Z,31.15
2023-04-17T19:46:13.721Z,31.54
2023-04-17T19:48:43.726Z,31.36
2023-04-17T19:51:13.464Z,31.96
2023-04-17T19:53:44.201Z,31.49
2023-04-17T19:56:11.943Z,31.41
2023-04-17T19:58:41.156Z,31.70
2023-04-17T20:01:09.073Z,31.74
2023-04-17T20:03:38.601Z,31.74
2023-04-17T20:06:07.461Z,31.68
2023-04-17T20:08:35.302Z,31.58
2023-04-17T20:11:04.606Z,31.62
2023-04-17T20:13:32.071Z,31.67
2023-04-17T20:15:59.836Z,31.63
2023-04-17T20:18:27.765Z,31.73
2023-04-17T20:20:55.841Z,31.83
2023-04-17T20:23:23.449Z,31.96
2023-04-17T20:25:51.152Z,31.91
2023-04-17T20:28:18.791Z,32.30
2023-04-17T20:30:46.563Z,32.13
2023-04-17T20:33:14.209Z,32.17
2023-04-17T20:35:42.386Z,32.22
2023-04-17T20:38:09.875Z,32.26
2023-04-17T20:40:37.492Z,32.49
2023-04-17T20:43:05.156Z,32.49
2023-04-17T20:45:32.704Z,32.40
2023-04-17T20:48:00.509Z,32.78
2023-04-17T20:50:28.720Z,32.56
2023-04-17T20:52:58.075Z,33.12
2023-04-17T20:55:28.944Z,33.21
2023-04-17T20:57:56.868Z,32.99
2023-04-17T21:00:24.623Z,32.93
2023-04-17T21:02:52.523Z,33.18
2023-04-17T21:05:20.518Z,33.22
2023-04-17T21:07:50.758Z,33.24
2023-04-17T21:10:22.592Z,33.35
2023-04-17T21:12:50.578Z,33.28
2023-04-17T21:15:18.448Z,33.27
2023-04-17T21:17:47.931Z,33.45
2023-04-17T21:20:16.022Z,33.43
2023-04-17T21:22:43.777Z,33.33
2023-04-17T21:25:11.459Z,33.32
2023-04-17T21:27:40.281Z,33.55
2023-04-17T21:30:10.695Z,33.52
2023-04-17T21:32:40.374Z,33.69
2023-04-17T21:35:09.353Z,33.69
2023-04-17T21:37:37.066Z,33.85
2023-04-17T21:40:05.294Z,33.95
2023-04-17T21:42:33.204Z,33.88
2023-04-17T21:45:01.175Z,34.00
2023-04-17T21:47:30.543Z,33.81
2023-04-17T21:50:00.364Z,33.87
2023-04-17T21:52:28.197Z,34.15
2023-04-17T21:55:02.863Z,34.19
2023-04-17T21:57:32.173Z,34.27
2023-04-17T22:00:00.548Z,34.39
2023-04-17T22:02:28.579Z,34.21
2023-04-17T22:04:56.581Z,34.50
2023-04-17T22:07:24.622Z,34.37
2023-04-17T22:09:52.508Z,34.52
2023-04-17T22:12:23.292Z,34.30
2023-04-17T22:14:51.254Z,34.23
2023-04-17T22:17:19.525Z,34.43
2023-04-17T22:19:47.437Z,34.44
2023-04-17T22:22:15.275Z,34.40
2023-04-17T22:24:43.168Z,34.24
2023-04-17T22:27:11.353Z,34.31
2023-04-17T22:29:39.119Z,34.31
2023-04-17T22:32:06.988Z,34.43
2023-04-17T22:34:34.694Z,34.63
2023-04-17T22:37:02.661Z,34.53
2023-04-17T22:39:30.676Z,34.52
2023-04-17T22:41:58.440Z,34.44
2023-04-17T22:44:26.412Z,34.66
2023-04-17T22:46:54.173Z,34.57
2023-04-17T22:49:21.839Z,34.39
2023-04-17T22:51:49.708Z,34.55
2023-04-17T22:54:22.746Z,34.33
2023-04-17T22:56:51.167Z,34.36
2023-04-17T22:59:19.041Z,34.33
2023-04-17T23:01:46.841Z,34.33
2023-04-17T23:04:16.916Z,34.40
2023-04-17T23:06:44.603Z,34.40
2023-04-17T23:09:12.339Z,34.55
2023-04-17T23:11:40.253Z,34.69
2023-04-17T23:14:07.974Z,34.56
2023-04-17T23:16:35.871Z,34.84
2023-04-17T23:19:03.707Z,34.74
2023-04-17T23:21:31.513Z,34.41
2023-04-17T23:23:59.388Z,34.61
2023-04-17T23:26:27.310Z,34.53
2023-04-17T23:28:55.264Z,34.61
2023-04-17T23:31:23.100Z,34.66
2023-04-17T23:33:51.115Z,34.87
2023-04-17T23:36:18.871Z,34.73
2023-04-17T23:38:46.645Z,34.82
2023-04-17T23:41:14.616Z,34.91
2023-04-17T23:43:42.506Z,34.90
2023-04-17T23:46:10.285Z,35.01
2023-04-17T23:48:38.101Z,35.35
2023-04-17T23:51:05.972Z,34.88
2023-04-17T23:53:33.629Z,34.89
2023-04-17T23:56:01.656Z,34.92
2023-04-17T23:58:29.369Z,35.10
